METAR AND TAF INFORMATION
METAR FOR LEAL
ADDS - METARS form results

(0717 UTC 02 December 2020)
Data provider http://aviationweather.gov/metar/data/
 
METAR text: LEAL 020700Z 26008KT 240V300 CAVOK 14/03 Q1012 NOSIG
Conditions at: LEAL (ALICANTE/EL ALTE, ES) observed 0700 UTC 02 December 2020
Temperature: 14.0°C (57°F)
Dewpoint: 3.0°C (37°F) [RH = 47%]
Pressure (altimeter): 29.88 inches Hg (1012.0 mb)
Winds: from the W (260 degrees) at 9 MPH (8 knots; 4.1 m/s)
Visibility: 6 or more miles (10+ km)
Ceiling: ceiling and visibility are OK
Clouds: unknown
Weather: no significant weather observed at this time

METAR text: LEAL 020630Z 26009KT CAVOK 14/04 Q1012 NOSIG
Conditions at: LEAL (ALICANTE/EL ALTE, ES) observed 0630 UTC 02 December 2020
Temperature: 14.0°C (57°F)
Dewpoint: 4.0°C (39°F) [RH = 51%]
Pressure (altimeter): 29.88 inches Hg (1012.0 mb)
Winds: from the W (260 degrees) at 10 MPH (9 knots; 4.6 m/s)
Visibility: 6 or more miles (10+ km)
Ceiling: ceiling and visibility are OK
Clouds: unknown
Weather: no significant weather observed at this time

Forecast for: LEAL (ALICANTE/EL ALTE, ES)
Text: TAF LEAL 020500Z 0206/0306 30010KT 9999 FEW030 TX18/0213Z TN10/0206Z
Forecast period: 0600 UTC 02 December 2020 to 0600 UTC 03 December 2020
Forecast type: FROM: standard forecast or significant change
Winds: from the WNW (300 degrees) at 12 MPH (10 knots; 5.1 m/s)
Visibility: 6 or more miles (10+ km)
Ceiling: at least 12,000 feet AGL
Clouds: few clouds at 3000 feet AGL
Weather: no significant weather forecast for this period
Text: TEMPO 0206/0207 31015G25KT
Forecast period: 0600 to 0700 UTC 02 December 2020
Forecast type: TEMPORARY: The following changes expected for less than half the time period
Winds: from the NW (310 degrees) at 17 MPH (15 knots; 7.7 m/s)
gusting to 29 MPH (25 knots; 12.9 m/s)
Visibility: missing
Ceiling: unknown
Clouds: missing
Weather: no significant weather forecast for this period
Text: TEMPO 0212/0216 31015G25KT
Forecast period: 1200 to 1600 UTC 02 December 2020
Forecast type: TEMPORARY: The following changes expected for less than half the time period
Winds: from the NW (310 degrees) at 17 MPH (15 knots; 7.7 m/s)
gusting to 29 MPH (25 knots; 12.9 m/s)
Visibility: missing
Ceiling: unknown
Clouds: missing
Weather: no significant weather forecast for this period

 AIRPORT MAP

 RUNWAY INFORMATION
Runway 10 Runway length 9842 ft Runway width 148 ft
Runway elevation 142 ft Runway displaced threshold 0 ft Runway heading 100
Runway 28 Runway length 9842 ft Runway width 148 ft
Runway elevation 44 ft Runway displaced threshold 0 ft Runway heading 280

 AIRPORT FREQUENCIES
Type APP Name APP Frequency 118.8 MHZ
Type ATIS Name ATIS Frequency 113.8 MHZ
Type GND Name GND Frequency 121.7 MHZ
Type TWR Name TWR Frequency 118.15 MHZ

 AIRPORT NEAR NAVIGATION AIDS
Type VOR-DME Name Alicante Frequency 113800 KHZ
Type VOR-DME Name Alicante Frequency 114650 KHZ



Powered by Virtual Airlines Manager [v2.6.2]